Jp Tsubaki — JD2817 — position and weather

sailwx.info

Track history (hours):
 
Tides and Currents Weather Stations Pressure Air Temp Water Temp Dewpoint Dewpoint Depression Visibility Wind Speed Wind Dir Waves Ship Positions

Jp Tsubaki

Last reported at 2017-Mar-29 10:32 UTC. Time now 2017-Mar-29 11:11 UTC.
Position N 35°24' E 139°39'.

Length 115 m; draft 4.4 m.

Type: Cargo ship. MMSI: 431000734.

Date/timePositionNaut miles runAvg speedWind from/ knotsBaromVisibWave heightAir tempDewpointWater temp
2017-Mar-29 10:32N 35°24' E 139°39'0 0.0
2017-Mar-29 09:29N 35°24' E 139°39'0 0.0
2017-Mar-29 08:32N 35°24' E 139°39'0 0.0
2017-Mar-29 07:32N 35°24' E 139°39'0 0.1
2017-Mar-29 06:33N 35°24' E 139°38'7 6.7
2017-Mar-29 05:33N 35°27' E 139°46'3 3.3
2017-Mar-29 04:33N 35°30' E 139°43'0 0.0
2017-Mar-29 03:33N 35°30' E 139°43'0 0.0
2017-Mar-29 02:33N 35°30' E 139°43'0 0.0
2017-Mar-29 01:33N 35°30' E 139°43'0 0.0
2017-Mar-29 00:33N 35°30' E 139°43'0 0.0
2017-Mar-28 23:33N 35°30' E 139°43'0 0.3
2017-Mar-28 22:33N 35°29' E 139°43'6 5.7
2017-Mar-28 21:33N 35°24' E 139°44'2 2.2
2017-Mar-28 20:33N 35°22' E 139°44'0 0.1
2017-Mar-28 19:33N 35°22' E 139°44'0 0.0
2017-Mar-28 18:33N 35°22' E 139°44'0 0.0
2017-Mar-28 17:33N 35°22' E 139°44'0 0.0
2017-Mar-28 16:33N 35°22' E 139°44'0 0.1
2017-Mar-28 15:33N 35°22' E 139°44'0 0.1
2017-Mar-28 14:33N 35°22' E 139°44'0 0.0
2017-Mar-28 13:33N 35°22' E 139°44'5 5.2
2017-Mar-28 12:33N 35°24' E 139°39'0 0.0
2017-Mar-28 11:32N 35°24' E 139°39'0 0.0
2017-Mar-28 10:32N 35°24' E 139°39'0 0.0
2017-Mar-28 09:32N 35°24' E 139°39'0 0.0
2017-Mar-28 08:32N 35°24' E 139°39'0 0.0
2017-Mar-28 07:32N 35°24' E 139°39'0 0.1
2017-Mar-28 06:33N 35°24' E 139°38'4 4.1
2017-Mar-28 05:33N 35°25' E 139°43'7 7.1
2017-Mar-28 04:33N 35°29' E 139°50'5 5.1
2017-Mar-28 03:33N 35°29' E 139°57'2 2.1
2017-Mar-28 02:28N 35°27' E 139°58'0 0.0
2017-Mar-28 01:28N 35°27' E 139°58'0 0.0
2017-Mar-28 00:28N 35°27' E 139°58'0 0.0
2017-Mar-27 23:22N 35°27' E 139°58'0 0.0
2017-Mar-27 22:32N 35°27' E 139°58'4 3.8
2017-Mar-27 21:33N 35°29' E 139°54'4 4.1
2017-Mar-27 20:33N 35°26' E 139°51'0 0.0
2017-Mar-27 19:33N 35°26' E 139°51'0 0.0
2017-Mar-27 18:30N 35°26' E 139°51'0 0.0
2017-Mar-27 17:33N 35°26' E 139°51'0 0.0
2017-Mar-27 16:33N 35°26' E 139°51'0 0.0
2017-Mar-27 15:33N 35°26' E 139°51'0 0.0
2017-Mar-27 14:33N 35°26' E 139°51'0 0.0
2017-Mar-27 13:33N 35°26' E 139°51'0 0.0
2017-Mar-27 12:33N 35°26' E 139°51'0 0.0
2017-Mar-27 11:33N 35°26' E 139°51'0 0.1
2017-Mar-27 10:33N 35°26' E 139°51'0 0.0
2017-Mar-27 09:33N 35°26' E 139°51'0 0.0
2017-Mar-27 08:33N 35°26' E 139°51'0 0.0
2017-Mar-27 07:33N 35°26' E 139°51'0 0.0
2017-Mar-27 06:32N 35°26' E 139°51'0 0.1
2017-Mar-27 05:33N 35°26' E 139°51'0 0.1
2017-Mar-27 04:33N 35°26' E 139°51'0 0.0
2017-Mar-27 03:33N 35°26' E 139°51'0 0.0
2017-Mar-27 02:33N 35°26' E 139°51'0 0.1
2017-Mar-27 01:21N 35°26' E 139°51'0 0.1
2017-Mar-27 00:29N 35°26' E 139°51'0 0.0
2017-Mar-26 23:29N 35°26' E 139°51'0 0.1
2017-Mar-26 22:33N 35°26' E 139°51'0 0.0
2017-Mar-26 21:30N 35°26' E 139°51'0 0.1
2017-Mar-26 20:34N 35°26' E 139°51'0 0.0
2017-Mar-26 19:33N 35°27' E 139°51'0 0.0
2017-Mar-26 18:33N 35°27' E 139°51'0 0.0
2017-Mar-26 17:33N 35°27' E 139°51'0 0.0
2017-Mar-26 16:33N 35°26' E 139°51'0 0.0
2017-Mar-26 15:33N 35°27' E 139°51'0 0.1
2017-Mar-26 14:34N 35°26' E 139°51'1010.1
2017-Mar-26 13:33N 35°24' E 139°39'0 0.3
2017-Mar-26 12:33N 35°24' E 139°39'0 0.0
2017-Mar-26 11:33N 35°24' E 139°39'0 0.0
2017-Mar-26 10:33N 35°24' E 139°39'0 0.0
2017-Mar-26 09:33N 35°24' E 139°39'0 0.0
2017-Mar-26 08:33N 35°24' E 139°39'0 0.0
2017-Mar-26 07:33N 35°24' E 139°39'0 0.0
2017-Mar-26 06:33N 35°24' E 139°39'0 0.0
2017-Mar-26 05:30N 35°24' E 139°39'0 0.0
2017-Mar-26 04:30N 35°24' E 139°39'0 0.0
2017-Mar-26 03:30N 35°24' E 139°39'0 0.0
2017-Mar-26 02:33N 35°24' E 139°39'0 0.0
2017-Mar-26 01:30N 35°24' E 139°39'0 0.0
2017-Mar-26 00:33N 35°24' E 139°39'0 0.2
2017-Mar-25 23:34N 35°24' E 139°38'5 4.7
2017-Mar-25 22:33N 35°22' E 139°44'0 0.0
2017-Mar-25 21:31N 35°22' E 139°44'0 0.0
2017-Mar-25 20:31N 35°22' E 139°44'0 0.0
2017-Mar-25 19:31N 35°22' E 139°44'0 0.0
2017-Mar-25 18:31N 35°22' E 139°44'0 0.1
2017-Mar-25 17:31N 35°23' E 139°44'0 0.0
2017-Mar-25 16:31N 35°23' E 139°44'0 0.0
2017-Mar-25 15:28N 35°23' E 139°44'0 0.0
2017-Mar-25 14:31N 35°23' E 139°44'0 0.0
2017-Mar-25 13:31N 35°23' E 139°44'0 0.0
2017-Mar-25 12:31N 35°23' E 139°44'0 0.0
2017-Mar-25 11:31N 35°23' E 139°44'0 0.0
2017-Mar-25 10:31N 35°23' E 139°44'0 0.0
2017-Mar-25 09:31N 35°23' E 139°44'0 0.0
2017-Mar-25 08:31N 35°22' E 139°44'4 4.1
2017-Mar-25 07:33N 35°26' E 139°46'4 4.2
2017-Mar-25 06:33N 35°30' E 139°43'0 0.3
2017-Mar-25 05:33N 35°30' E 139°43'0 0.0
2017-Mar-25 04:29N 35°30' E 139°43'0 0.0
2017-Mar-25 03:32N 35°30' E 139°43'0 0.0
2017-Mar-25 02:32N 35°30' E 139°43'0 0.0
2017-Mar-25 01:32N 35°30' E 139°43'0 0.0
2017-Mar-25 00:32N 35°30' E 139°43'0 0.0
2017-Mar-24 23:32N 35°30' E 139°43'4 4.1
2017-Mar-24 22:34N 35°26' E 139°46'4 4.2
2017-Mar-24 21:33N 35°26' E 139°51'0 0.1
2017-Mar-24 20:33N 35°26' E 139°51'0 0.0
2017-Mar-24 19:30N 35°26' E 139°51'0 0.0
2017-Mar-24 18:33N 35°26' E 139°51'0 0.0
2017-Mar-24 17:33N 35°26' E 139°51'0 0.1
2017-Mar-24 16:33N 35°26' E 139°51'1 0.8
2017-Mar-24 15:33N 35°26' E 139°50'10 9.6
2017-Mar-24 14:34N 35°24' E 139°39'0 0.0
2017-Mar-24 13:32N 35°24' E 139°39'0 0.0
2017-Mar-24 12:32N 35°24' E 139°39'0 0.0
2017-Mar-24 11:32N 35°24' E 139°39'0 0.0
2017-Mar-24 10:23N 35°24' E 139°39'0 0.0
2017-Mar-24 09:32N 35°24' E 139°39'0 0.0
2017-Mar-24 08:32N 35°24' E 139°39'0 0.0
2017-Mar-24 07:32N 35°24' E 139°39'0 0.0
2017-Mar-24 06:32N 35°24' E 139°39'0 0.0
2017-Mar-24 05:32N 35°24' E 139°39'0 0.0
2017-Mar-24 04:32N 35°24' E 139°39'0 0.0
2017-Mar-24 03:32N 35°24' E 139°39'0 0.0
2017-Mar-24 02:29N 35°24' E 139°39'0 0.0
2017-Mar-24 01:32N 35°24' E 139°39'0 0.0
2017-Mar-24 00:32N 35°24' E 139°39'0 0.0
2017-Mar-23 23:32N 35°24' E 139°39'0 0.0
2017-Mar-23 22:32N 35°24' E 139°39'0 0.0
2017-Mar-23 21:32N 35°24' E 139°39'0 0.0
2017-Mar-23 20:32N 35°24' E 139°39'0 0.0
2017-Mar-23 19:32N 35°24' E 139°39'0 0.0
2017-Mar-23 18:32N 35°24' E 139°39'0 0.0
2017-Mar-23 17:32N 35°24' E 139°39'0 0.0
2017-Mar-23 16:32N 35°24' E 139°39'0 0.0
2017-Mar-23 15:32N 35°24' E 139°39'0 0.0
2017-Mar-23 14:32N 35°24' E 139°39'0 0.0
2017-Mar-23 13:29N 35°24' E 139°39'0 0.0
2017-Mar-23 12:17N 35°24' E 139°39'0 0.0
2017-Mar-23 11:29N 35°24' E 139°39'0 0.0
2017-Mar-23 10:29N 35°24' E 139°39'0 0.0
2017-Mar-23 09:33N 35°24' E 139°39'7 7.2
2017-Mar-23 08:33N 35°27' E 139°47'9 9.2
2017-Mar-23 07:33N 35°28' E 139°58'1 0.6
2017-Mar-23 06:33N 35°27' E 139°58'0 0.0
2017-Mar-23 05:31N 35°27' E 139°58'0 0.0
2017-Mar-23 04:31N 35°27' E 139°58'0 0.0
2017-Mar-23 03:31N 35°27' E 139°58'0 0.0
2017-Mar-23 02:31N 35°27' E 139°58'2 2.5
2017-Mar-23 01:33N 35°29' E 139°57'3 2.9
2017-Mar-23 00:33N 35°28' E 139°53'0 0.0
2017-Mar-22 23:33N 35°28' E 139°53'0 0.0
2017-Mar-22 22:33N 35°28' E 139°53'0 0.0
2017-Mar-22 21:33N 35°28' E 139°53'0 0.1
2017-Mar-22 20:33N 35°28' E 139°53'0 0.0
2017-Mar-22 19:33N 35°28' E 139°53'0 0.1
2017-Mar-22 18:33N 35°28' E 139°53'0 0.0
2017-Mar-22 17:33N 35°28' E 139°53'0 0.0
2017-Mar-22 16:33N 35°28' E 139°53'0 0.0
2017-Mar-22 15:33N 35°28' E 139°53'0 0.0
2017-Mar-22 14:33N 35°28' E 139°53'0 0.0
2017-Mar-22 13:33N 35°28' E 139°53'0 0.0
2017-Mar-22 12:30N 35°28' E 139°53'0 0.0
2017-Mar-22 11:33N 35°28' E 139°53'0 0.0
2017-Mar-22 10:33N 35°28' E 139°53'0 0.0
2017-Mar-22 09:33N 35°28' E 139°53'0 0.0
2017-Mar-22 08:33N 35°28' E 139°53'0 0.0
2017-Mar-22 07:33N 35°28' E 139°53'0 0.0
2017-Mar-22 06:33N 35°28' E 139°53'0 0.0
2017-Mar-22 05:33N 35°28' E 139°53'0 0.0
2017-Mar-22 04:33N 35°28' E 139°53'0 0.0
2017-Mar-22 03:33N 35°28' E 139°53'0 0.0
2017-Mar-22 02:33N 35°28' E 139°53'0 0.0
2017-Mar-22 01:30N 35°28' E 139°53'0 0.1
2017-Mar-22 00:33N 35°28' E 139°53'0 0.0
2017-Mar-21 23:33N 35°28' E 139°53'0 0.0
2017-Mar-21 22:30N 35°28' E 139°53'0 0.1
2017-Mar-21 21:33N 35°28' E 139°53'0 0.1
2017-Mar-21 20:33N 35°28' E 139°53'0 0.1
2017-Mar-21 19:33N 35°28' E 139°53'0 0.0
2017-Mar-21 18:27N 35°28' E 139°53'0 0.0
2017-Mar-21 17:33N 35°28' E 139°53'0 0.0
2017-Mar-21 16:33N 35°28' E 139°53'0 0.0
2017-Mar-21 15:30N 35°28' E 139°53'0 0.0
2017-Mar-21 14:33N 35°28' E 139°53'4 4.0
2017-Mar-21 13:33N 35°27' E 139°49'9 8.8
2017-Mar-21 12:33N 35°24' E 139°39'0 0.0
2017-Mar-21 11:31N 35°24' E 139°39'0 0.0
2017-Mar-21 10:31N 35°24' E 139°39'0 0.0
2017-Mar-21 09:25N 35°24' E 139°39'0 0.0
2017-Mar-21 08:31N 35°24' E 139°39'0 0.0
2017-Mar-21 07:31N 35°24' E 139°39'0 0.0
2017-Mar-21 06:31N 35°24' E 139°39'0 0.0
2017-Mar-21 05:28N 35°24' E 139°39'0 0.0
2017-Mar-21 04:33N 35°24' E 139°39'1 1.2
2017-Mar-21 03:33N 35°24' E 139°40'0 0.0
2017-Mar-21 02:33N 35°24' E 139°40'0 0.0
2017-Mar-21 01:33N 35°24' E 139°40'0 0.0
2017-Mar-21 00:33N 35°24' E 139°40'0 0.0
2017-Mar-20 23:33N 35°24' E 139°40'0 0.0
2017-Mar-20 22:33N 35°24' E 139°40'0 0.3
2017-Mar-20 21:33N 35°24' E 139°40'4 3.9
2017-Mar-20 20:32N 35°22' E 139°44'0 0.0
2017-Mar-20 19:32N 35°22' E 139°44'0 0.0
2017-Mar-20 18:32N 35°22' E 139°44'0 0.0
2017-Mar-20 17:32N 35°22' E 139°44'0 0.0
2017-Mar-20 16:32N 35°22' E 139°44'0 0.0
2017-Mar-20 15:32N 35°22' E 139°44'0 0.0
2017-Mar-20 14:32N 35°22' E 139°44'0 0.1
2017-Mar-20 13:32N 35°22' E 139°44'5 5.2
2017-Mar-20 12:33N 35°24' E 139°39'0 0.0
2017-Mar-20 11:33N 35°24' E 139°39'0 0.0
2017-Mar-20 10:30N 35°24' E 139°39'0 0.0
2017-Mar-20 09:30N 35°24' E 139°39'0 0.0
2017-Mar-20 08:32N 35°24' E 139°39'0 0.0
2017-Mar-20 07:30N 35°24' E 139°39'0 0.0
2017-Mar-20 06:20N 35°24' E 139°39'0 0.0
2017-Mar-20 05:33N 35°24' E 139°39'0 0.0
2017-Mar-20 04:33N 35°24' E 139°39'0 0.0
2017-Mar-20 03:33N 35°24' E 139°39'0 0.0
2017-Mar-20 02:33N 35°24' E 139°39'0 0.0
2017-Mar-20 01:21N 35°24' E 139°39'0 0.0
2017-Mar-20 00:30N 35°24' E 139°39'0 0.0
2017-Mar-19 23:33N 35°24' E 139°39'0 0.0
2017-Mar-19 22:33N 35°24' E 139°39'0 0.0
2017-Mar-19 21:32N 35°24' E 139°39'0 0.0
2017-Mar-19 20:27N 35°24' E 139°39'0 0.0
2017-Mar-19 19:30N 35°24' E 139°39'0 0.0
2017-Mar-19 18:32N 35°24' E 139°39'0 0.0
2017-Mar-19 17:32N 35°24' E 139°39'0 0.0
2017-Mar-19 16:33N 35°24' E 139°39'0 0.0
2017-Mar-19 15:32N 35°24' E 139°39'0 0.0
2017-Mar-19 14:33N 35°24' E 139°39'0 0.0
2017-Mar-19 13:27N 35°24' E 139°39'1 1.3
2017-Mar-19 12:34N 35°24' E 139°40'0 0.2
2017-Mar-19 11:31N 35°24' E 139°40'  
Track history (hours):
 
Tides and Currents Weather Stations Pressure Air Temp Water Temp Dewpoint Dewpoint Depression Visibility Wind Speed Wind Dir Waves Ship Positions

Jp Tsubaki

Last reported at 2017-Mar-29 10:32 UTC. Time now 2017-Mar-29 11:11 UTC.
Position N 35°24' E 139°39'.

Length 115 m; draft 4.4 m.

Type: Cargo ship. MMSI: 431000734.

Date/timePositionNaut miles runAvg speedWind from/ knotsBaromVisibWave heightAir tempDewpointWater temp
2017-Mar-29 10:32N 35°24' E 139°39'0 0.0
2017-Mar-29 09:29N 35°24' E 139°39'0 0.0
2017-Mar-29 08:32N 35°24' E 139°39'0 0.0
2017-Mar-29 07:32N 35°24' E 139°39'0 0.1
2017-Mar-29 06:33N 35°24' E 139°38'7 6.7
2017-Mar-29 05:33N 35°27' E 139°46'3 3.3
2017-Mar-29 04:33N 35°30' E 139°43'0 0.0
2017-Mar-29 03:33N 35°30' E 139°43'0 0.0
2017-Mar-29 02:33N 35°30' E 139°43'0 0.0
2017-Mar-29 01:33N 35°30' E 139°43'0 0.0
2017-Mar-29 00:33N 35°30' E 139°43'0 0.0
2017-Mar-28 23:33N 35°30' E 139°43'0 0.3
2017-Mar-28 22:33N 35°29' E 139°43'6 5.7
2017-Mar-28 21:33N 35°24' E 139°44'2 2.2
2017-Mar-28 20:33N 35°22' E 139°44'0 0.1
2017-Mar-28 19:33N 35°22' E 139°44'0 0.0
2017-Mar-28 18:33N 35°22' E 139°44'0 0.0
2017-Mar-28 17:33N 35°22' E 139°44'0 0.0
2017-Mar-28 16:33N 35°22' E 139°44'0 0.1
2017-Mar-28 15:33N 35°22' E 139°44'0 0.1
2017-Mar-28 14:33N 35°22' E 139°44'0 0.0
2017-Mar-28 13:33N 35°22' E 139°44'5 5.2
2017-Mar-28 12:33N 35°24' E 139°39'0 0.0
2017-Mar-28 11:32N 35°24' E 139°39'0 0.0
2017-Mar-28 10:32N 35°24' E 139°39'0 0.0
2017-Mar-28 09:32N 35°24' E 139°39'0 0.0
2017-Mar-28 08:32N 35°24' E 139°39'0 0.0
2017-Mar-28 07:32N 35°24' E 139°39'0 0.1
2017-Mar-28 06:33N 35°24' E 139°38'4 4.1
2017-Mar-28 05:33N 35°25' E 139°43'7 7.1
2017-Mar-28 04:33N 35°29' E 139°50'5 5.1
2017-Mar-28 03:33N 35°29' E 139°57'2 2.1
2017-Mar-28 02:28N 35°27' E 139°58'0 0.0
2017-Mar-28 01:28N 35°27' E 139°58'0 0.0
2017-Mar-28 00:28N 35°27' E 139°58'0 0.0
2017-Mar-27 23:22N 35°27' E 139°58'0 0.0
2017-Mar-27 22:32N 35°27' E 139°58'4 3.8
2017-Mar-27 21:33N 35°29' E 139°54'4 4.1
2017-Mar-27 20:33N 35°26' E 139°51'0 0.0
2017-Mar-27 19:33N 35°26' E 139°51'0 0.0
2017-Mar-27 18:30N 35°26' E 139°51'0 0.0
2017-Mar-27 17:33N 35°26' E 139°51'0 0.0
2017-Mar-27 16:33N 35°26' E 139°51'0 0.0
2017-Mar-27 15:33N 35°26' E 139°51'0 0.0
2017-Mar-27 14:33N 35°26' E 139°51'0 0.0
2017-Mar-27 13:33N 35°26' E 139°51'0 0.0
2017-Mar-27 12:33N 35°26' E 139°51'0 0.0
2017-Mar-27 11:33N 35°26' E 139°51'0 0.1
2017-Mar-27 10:33N 35°26' E 139°51'0 0.0
2017-Mar-27 09:33N 35°26' E 139°51'0 0.0
2017-Mar-27 08:33N 35°26' E 139°51'0 0.0
2017-Mar-27 07:33N 35°26' E 139°51'0 0.0
2017-Mar-27 06:32N 35°26' E 139°51'0 0.1
2017-Mar-27 05:33N 35°26' E 139°51'0 0.1
2017-Mar-27 04:33N 35°26' E 139°51'0 0.0
2017-Mar-27 03:33N 35°26' E 139°51'0 0.0
2017-Mar-27 02:33N 35°26' E 139°51'0 0.1
2017-Mar-27 01:21N 35°26' E 139°51'0 0.1
2017-Mar-27 00:29N 35°26' E 139°51'0 0.0
2017-Mar-26 23:29N 35°26' E 139°51'0 0.1
2017-Mar-26 22:33N 35°26' E 139°51'0 0.0
2017-Mar-26 21:30N 35°26' E 139°51'0 0.1
2017-Mar-26 20:34N 35°26' E 139°51'0 0.0
2017-Mar-26 19:33N 35°27' E 139°51'0 0.0
2017-Mar-26 18:33N 35°27' E 139°51'0 0.0
2017-Mar-26 17:33N 35°27' E 139°51'0 0.0
2017-Mar-26 16:33N 35°26' E 139°51'0 0.0
2017-Mar-26 15:33N 35°27' E 139°51'0 0.1
2017-Mar-26 14:34N 35°26' E 139°51'1010.1
2017-Mar-26 13:33N 35°24' E 139°39'0 0.3
2017-Mar-26 12:33N 35°24' E 139°39'0 0.0
2017-Mar-26 11:33N 35°24' E 139°39'0 0.0
2017-Mar-26 10:33N 35°24' E 139°39'0 0.0
2017-Mar-26 09:33N 35°24' E 139°39'0 0.0
2017-Mar-26 08:33N 35°24' E 139°39'0 0.0
2017-Mar-26 07:33N 35°24' E 139°39'0 0.0
2017-Mar-26 06:33N 35°24' E 139°39'0 0.0
2017-Mar-26 05:30N 35°24' E 139°39'0 0.0
2017-Mar-26 04:30N 35°24' E 139°39'0 0.0
2017-Mar-26 03:30N 35°24' E 139°39'0 0.0
2017-Mar-26 02:33N 35°24' E 139°39'0 0.0
2017-Mar-26 01:30N 35°24' E 139°39'0 0.0
2017-Mar-26 00:33N 35°24' E 139°39'0 0.2
2017-Mar-25 23:34N 35°24' E 139°38'5 4.7
2017-Mar-25 22:33N 35°22' E 139°44'0 0.0
2017-Mar-25 21:31N 35°22' E 139°44'0 0.0
2017-Mar-25 20:31N 35°22' E 139°44'0 0.0
2017-Mar-25 19:31N 35°22' E 139°44'0 0.0
2017-Mar-25 18:31N 35°22' E 139°44'0 0.1
2017-Mar-25 17:31N 35°23' E 139°44'0 0.0
2017-Mar-25 16:31N 35°23' E 139°44'0 0.0
2017-Mar-25 15:28N 35°23' E 139°44'0 0.0
2017-Mar-25 14:31N 35°23' E 139°44'0 0.0
2017-Mar-25 13:31N 35°23' E 139°44'0 0.0
2017-Mar-25 12:31N 35°23' E 139°44'0 0.0
2017-Mar-25 11:31N 35°23' E 139°44'0 0.0
2017-Mar-25 10:31N 35°23' E 139°44'0 0.0
2017-Mar-25 09:31N 35°23' E 139°44'0 0.0
2017-Mar-25 08:31N 35°22' E 139°44'4 4.1
2017-Mar-25 07:33N 35°26' E 139°46'4 4.2
2017-Mar-25 06:33N 35°30' E 139°43'0 0.3
2017-Mar-25 05:33N 35°30' E 139°43'0 0.0
2017-Mar-25 04:29N 35°30' E 139°43'0 0.0
2017-Mar-25 03:32N 35°30' E 139°43'0 0.0
2017-Mar-25 02:32N 35°30' E 139°43'0 0.0
2017-Mar-25 01:32N 35°30' E 139°43'0 0.0
2017-Mar-25 00:32N 35°30' E 139°43'0 0.0
2017-Mar-24 23:32N 35°30' E 139°43'4 4.1
2017-Mar-24 22:34N 35°26' E 139°46'4 4.2
2017-Mar-24 21:33N 35°26' E 139°51'0 0.1
2017-Mar-24 20:33N 35°26' E 139°51'0 0.0
2017-Mar-24 19:30N 35°26' E 139°51'0 0.0
2017-Mar-24 18:33N 35°26' E 139°51'0 0.0
2017-Mar-24 17:33N 35°26' E 139°51'0 0.1
2017-Mar-24 16:33N 35°26' E 139°51'1 0.8
2017-Mar-24 15:33N 35°26' E 139°50'10 9.6
2017-Mar-24 14:34N 35°24' E 139°39'0 0.0
2017-Mar-24 13:32N 35°24' E 139°39'0 0.0
2017-Mar-24 12:32N 35°24' E 139°39'0 0.0
2017-Mar-24 11:32N 35°24' E 139°39'0 0.0
2017-Mar-24 10:23N 35°24' E 139°39'0 0.0
2017-Mar-24 09:32N 35°24' E 139°39'0 0.0
2017-Mar-24 08:32N 35°24' E 139°39'0 0.0
2017-Mar-24 07:32N 35°24' E 139°39'0 0.0
2017-Mar-24 06:32N 35°24' E 139°39'0 0.0
2017-Mar-24 05:32N 35°24' E 139°39'0 0.0
2017-Mar-24 04:32N 35°24' E 139°39'0 0.0
2017-Mar-24 03:32N 35°24' E 139°39'0 0.0
2017-Mar-24 02:29N 35°24' E 139°39'0 0.0
2017-Mar-24 01:32N 35°24' E 139°39'0 0.0
2017-Mar-24 00:32N 35°24' E 139°39'0 0.0
2017-Mar-23 23:32N 35°24' E 139°39'0 0.0
2017-Mar-23 22:32N 35°24' E 139°39'0 0.0
2017-Mar-23 21:32N 35°24' E 139°39'0 0.0
2017-Mar-23 20:32N 35°24' E 139°39'0 0.0
2017-Mar-23 19:32N 35°24' E 139°39'0 0.0
2017-Mar-23 18:32N 35°24' E 139°39'0 0.0
2017-Mar-23 17:32N 35°24' E 139°39'0 0.0
2017-Mar-23 16:32N 35°24' E 139°39'0 0.0
2017-Mar-23 15:32N 35°24' E 139°39'0 0.0
2017-Mar-23 14:32N 35°24' E 139°39'0 0.0
2017-Mar-23 13:29N 35°24' E 139°39'0 0.0
2017-Mar-23 12:17N 35°24' E 139°39'0 0.0
2017-Mar-23 11:29N 35°24' E 139°39'0 0.0
2017-Mar-23 10:29N 35°24' E 139°39'0 0.0
2017-Mar-23 09:33N 35°24' E 139°39'7 7.2
2017-Mar-23 08:33N 35°27' E 139°47'9 9.2
2017-Mar-23 07:33N 35°28' E 139°58'1 0.6
2017-Mar-23 06:33N 35°27' E 139°58'0 0.0
2017-Mar-23 05:31N 35°27' E 139°58'0 0.0
2017-Mar-23 04:31N 35°27' E 139°58'0 0.0
2017-Mar-23 03:31N 35°27' E 139°58'0 0.0
2017-Mar-23 02:31N 35°27' E 139°58'2 2.5
2017-Mar-23 01:33N 35°29' E 139°57'3 2.9
2017-Mar-23 00:33N 35°28' E 139°53'0 0.0
2017-Mar-22 23:33N 35°28' E 139°53'0 0.0
2017-Mar-22 22:33N 35°28' E 139°53'0 0.0
2017-Mar-22 21:33N 35°28' E 139°53'0 0.1
2017-Mar-22 20:33N 35°28' E 139°53'0 0.0
2017-Mar-22 19:33N 35°28' E 139°53'0 0.1
2017-Mar-22 18:33N 35°28' E 139°53'0 0.0
2017-Mar-22 17:33N 35°28' E 139°53'0 0.0
2017-Mar-22 16:33N 35°28' E 139°53'0 0.0
2017-Mar-22 15:33N 35°28' E 139°53'0 0.0
2017-Mar-22 14:33N 35°28' E 139°53'0 0.0
2017-Mar-22 13:33N 35°28' E 139°53'0 0.0
2017-Mar-22 12:30N 35°28' E 139°53'0 0.0
2017-Mar-22 11:33N 35°28' E 139°53'0 0.0
2017-Mar-22 10:33N 35°28' E 139°53'0 0.0
2017-Mar-22 09:33N 35°28' E 139°53'0 0.0
2017-Mar-22 08:33N 35°28' E 139°53'0 0.0
2017-Mar-22 07:33N 35°28' E 139°53'0 0.0
2017-Mar-22 06:33N 35°28' E 139°53'0 0.0
2017-Mar-22 05:33N 35°28' E 139°53'0 0.0
2017-Mar-22 04:33N 35°28' E 139°53'0 0.0
2017-Mar-22 03:33N 35°28' E 139°53'0 0.0
2017-Mar-22 02:33N 35°28' E 139°53'0 0.0
2017-Mar-22 01:30N 35°28' E 139°53'0 0.1
2017-Mar-22 00:33N 35°28' E 139°53'0 0.0
2017-Mar-21 23:33N 35°28' E 139°53'0 0.0
2017-Mar-21 22:30N 35°28' E 139°53'0 0.1
2017-Mar-21 21:33N 35°28' E 139°53'0 0.1
2017-Mar-21 20:33N 35°28' E 139°53'0 0.1
2017-Mar-21 19:33N 35°28' E 139°53'0 0.0
2017-Mar-21 18:27N 35°28' E 139°53'0 0.0
2017-Mar-21 17:33N 35°28' E 139°53'0 0.0
2017-Mar-21 16:33N 35°28' E 139°53'0 0.0
2017-Mar-21 15:30N 35°28' E 139°53'0 0.0
2017-Mar-21 14:33N 35°28' E 139°53'4 4.0
2017-Mar-21 13:33N 35°27' E 139°49'9 8.8
2017-Mar-21 12:33N 35°24' E 139°39'0 0.0
2017-Mar-21 11:31N 35°24' E 139°39'0 0.0
2017-Mar-21 10:31N 35°24' E 139°39'0 0.0
2017-Mar-21 09:25N 35°24' E 139°39'0 0.0
2017-Mar-21 08:31N 35°24' E 139°39'0 0.0
2017-Mar-21 07:31N 35°24' E 139°39'0 0.0
2017-Mar-21 06:31N 35°24' E 139°39'0 0.0
2017-Mar-21 05:28N 35°24' E 139°39'0 0.0
2017-Mar-21 04:33N 35°24' E 139°39'1 1.2
2017-Mar-21 03:33N 35°24' E 139°40'0 0.0
2017-Mar-21 02:33N 35°24' E 139°40'0 0.0
2017-Mar-21 01:33N 35°24' E 139°40'0 0.0
2017-Mar-21 00:33N 35°24' E 139°40'0 0.0
2017-Mar-20 23:33N 35°24' E 139°40'0 0.0
2017-Mar-20 22:33N 35°24' E 139°40'0 0.3
2017-Mar-20 21:33N 35°24' E 139°40'4 3.9
2017-Mar-20 20:32N 35°22' E 139°44'0 0.0
2017-Mar-20 19:32N 35°22' E 139°44'0 0.0
2017-Mar-20 18:32N 35°22' E 139°44'0 0.0
2017-Mar-20 17:32N 35°22' E 139°44'0 0.0
2017-Mar-20 16:32N 35°22' E 139°44'0 0.0
2017-Mar-20 15:32N 35°22' E 139°44'0 0.0
2017-Mar-20 14:32N 35°22' E 139°44'0 0.1
2017-Mar-20 13:32N 35°22' E 139°44'5 5.2
2017-Mar-20 12:33N 35°24' E 139°39'0 0.0
2017-Mar-20 11:33N 35°24' E 139°39'0 0.0
2017-Mar-20 10:30N 35°24' E 139°39'0 0.0
2017-Mar-20 09:30N 35°24' E 139°39'0 0.0
2017-Mar-20 08:32N 35°24' E 139°39'0 0.0
2017-Mar-20 07:30N 35°24' E 139°39'0 0.0
2017-Mar-20 06:20N 35°24' E 139°39'0 0.0
2017-Mar-20 05:33N 35°24' E 139°39'0 0.0
2017-Mar-20 04:33N 35°24' E 139°39'0 0.0
2017-Mar-20 03:33N 35°24' E 139°39'0 0.0
2017-Mar-20 02:33N 35°24' E 139°39'0 0.0
2017-Mar-20 01:21N 35°24' E 139°39'0 0.0
2017-Mar-20 00:30N 35°24' E 139°39'0 0.0
2017-Mar-19 23:33N 35°24' E 139°39'0 0.0
2017-Mar-19 22:33N 35°24' E 139°39'0 0.0
2017-Mar-19 21:32N 35°24' E 139°39'0 0.0
2017-Mar-19 20:27N 35°24' E 139°39'0 0.0
2017-Mar-19 19:30N 35°24' E 139°39'0 0.0
2017-Mar-19 18:32N 35°24' E 139°39'0 0.0
2017-Mar-19 17:32N 35°24' E 139°39'0 0.0
2017-Mar-19 16:33N 35°24' E 139°39'0 0.0
2017-Mar-19 15:32N 35°24' E 139°39'0 0.0
2017-Mar-19 14:33N 35°24' E 139°39'0 0.0
2017-Mar-19 13:27N 35°24' E 139°39'1 1.3
2017-Mar-19 12:34N 35°24' E 139°40'0 0.2
2017-Mar-19 11:31N 35°24' E 139°40'  

Dump ship's entire track history